首页
METAR-TAF:

METAR-TAF

机场 :

琼斯伯勒, 阿肯色州, 美国

纬度: 35-50-14N, 经度: 090-38-35W, 海拔: 79米

METAR: 丢失

时间: 13:14 (18:14 UTC)

预报

该预报发布于52分钟前的17:22 UTC
预报有效从30日的 18点(UTC)到 31日的 18点(UTC)
风速8节,风向北转东北
能見度: 10公里
天空无云
从 31日的 0000点(UTC)
风速3节,风向北转东北
能見度: 10公里
天空无云
从 31日的 1400点(UTC)
风速7节,风向东转东北
能見度: 10公里
少量云层高于25000英尺

TAF: KJBR 301722Z 3018/3118 03008KT P6SM SKC FM310000 02003KT P6SM SKC FM311400 06007KT P6SM FEW250 AMD NOT SKED

超过4000个机场的气象观测和天气预报(METAR&TAF报告)。

可查询的气象台以黄色和红色小点在地图上表示。

将鼠标移到小点上方,可查看气象台名称。

然后点击查看天气观测和预报。

如需切换地图:点击带黑十字的绿色按钮放大地图;点击带横线的绿色按钮缩小地图;或者点击绿色箭头查看邻近地区的地图。


METAR-TAF: